Mevagissey, United Kingdom
Current Conditions -  °F | °C
As of 8:50 PM on Thursday 27 Nov 2014 (Local Time) from EGHQ Reporting Station
Scattered Clouds Scattered Clouds  
Wind Chill: 50°   Ceiling: Unl
Heat Index: 50°   Visibility: 6mi
Dew Point: 46°   Wind: 16mph
Humidity: 87%   Direction: 110°ESE
Pressure: 29.38"   Gusts: NA
Location:  50.27°N, 4.79°W
Report Text: EGHQ 272050Z 11014KT 9999 SCT014 10/08 Q0995
Loading
Personal Weather Stations






























Interactive Weather Map New forecast layout! Learn more

10-Day Weather Forecast

Advertisements
Track Severe Weather on mobile